Terminal Aerodrome Forecast
Issued by NWS

Current Version | Previous Version | Text Only | Print | Product List | Glossary Off
Versions: 1 2 3 4 5 6 7 8 9 10 11 12 13 14 15 16 17 18 19 20 21 22 23 24 25 26 27 28 29 30 31 32 33 34 35

000
FTUS41 KRNK 231730
TAFLWB
TAF
KLWB 231730Z 2318/2418 04003KT 5SM -SNPL BR BKN007 OVC015
     FM232200 06005KT 2SM -FZRAPL BR OVC005
     FM240200 VRB03KT 1SM -SN BR OVC005
     FM240700 VRB03KT 1SM -FZDZ BR OVC005
     FM241400 30008G18KT 2SM -SN OVC012=

USA.gov is the U.S. government's official web portal to all federal, state and local government web resources and services.